Terminal Aerodrome Forecast
Issued by NWS Charleston, WV

Current Version | Previous Version | Text Only | Print | Product List | Glossary Off
Versions: 1 2 3 4 5 6 7 8 9 10 11 12 13 14 15 16 17 18 19 20 21 22 23 24 25 26 27 28 29

000
FTUS41 KRLX 180500
TAFBKW
TAF
KBKW 180521Z 1806/1906 00000KT P6SM OVC060
     FM180900 17004KT P6SM OVC035
     FM181200 17006KT 5SM +SHRA BR OVC030
     FM181400 18006KT 2SM +SHRA BR VCTS OVC015CB
     FM181900 23006KT 2SM +SHRA BR VCTS SCT008 OVC015CB
     FM182300 25005KT 6SM BR VCTS OVC015CB
     FM190200 24004KT P6SM OVC015=

USA.gov is the U.S. government's official web portal to all federal, state and local government web resources and services.